Time;durP1;ratioP1;P1;durP2;ratioP2;P2;SDS_P1;SDS_P2;PMS_P1;PMS_P2;Temp;Humidity;BMP_temperature;BMP_pressure;BME280_temperature;BME280_humidity;BME280_pressure;Samples;Min_cycle;Max_cycle;Signal;HPM_P1;HPM_P2
2022/03/26 00:01:50;;;;;;;12.93;6.78;;;;;;;;;;1753627;81;21453;-69
2022/03/26 00:04:16;;;;;;;10.35;6.22;;;;;;;;;;1753142;80;21075;-69
2022/03/26 00:06:44;;;;;;;10.25;6.58;;;;;;;;;;1753557;81;21124;-69
2022/03/26 00:09:10;;;;;;;11.45;6.80;;;;;;;;;;1753129;82;21610;-69
2022/03/26 00:11:38;;;;;;;12.20;6.78;;;;;;;;;;1753207;82;21020;-70
2022/03/26 00:14:05;;;;;;;10.70;6.30;;;;;;;;;;1753651;81;21044;-70
2022/03/26 00:16:34;;;;;;;11.33;6.60;;;;;;;;;;1753116;82;21550;-69
2022/03/26 00:19:00;;;;;;;12.60;6.55;;;;;;;;;;1724704;82;20996;-70
2022/03/26 00:21:28;;;;;;;10.00;6.17;;;;;;;;;;1753112;81;21122;-69
2022/03/26 00:23:55;;;;;;;12.25;6.90;;;;;;;;;;1753122;82;21083;-70
2022/03/26 00:26:22;;;;;;;11.48;6.92;;;;;;;;;;1753314;82;21021;-71
2022/03/26 00:28:50;;;;;;;13.28;7.55;;;;;;;;;;1753474;81;21088;-69
2022/03/26 00:31:16;;;;;;;12.28;6.62;;;;;;;;;;1753141;82;21032;-69
2022/03/26 00:33:43;;;;;;;11.10;6.58;;;;;;;;;;1753286;81;21052;-69
2022/03/26 00:37:02;;;;;;;12.88;6.70;;;;;;;;;;1819885;79;22752;-69
2022/03/26 00:39:28;;;;;;;13.43;7.87;;;;;;;;;;1792934;80;21024;-70
2022/03/26 00:41:55;;;;;;;13.90;7.03;;;;;;;;;;1792931;80;21055;-69
2022/03/26 00:44:21;;;;;;;11.30;6.92;;;;;;;;;;1793191;80;21024;-69
2022/03/26 00:46:47;;;;;;;13.65;6.55;;;;;;;;;;1793075;80;21055;-69
2022/03/26 00:49:13;;;;;;;12.70;7.05;;;;;;;;;;1793222;80;21024;-69
2022/03/26 00:51:40;;;;;;;12.65;7.33;;;;;;;;;;1792734;80;21571;-69
2022/03/26 00:54:08;;;;;;;12.80;6.42;;;;;;;;;;1793095;80;21519;-69
2022/03/26 00:56:34;;;;;;;12.40;6.55;;;;;;;;;;1793196;80;21030;-69
2022/03/26 00:59:00;;;;;;;12.07;7.22;;;;;;;;;;1793021;80;21048;-68
2022/03/26 01:04:17;;;;;;;10.35;6.45;;;;;;;;;;1753187;79;74563;-69
2022/03/26 01:06:44;;;;;;;10.58;6.97;;;;;;;;;;1763661;81;21079;-70
2022/03/26 01:09:10;;;;;;;14.18;7.92;;;;;;;;;;1761253;81;21091;-70
2022/03/26 01:11:37;;;;;;;16.30;8.43;;;;;;;;;;1761613;81;21484;-70
2022/03/26 01:14:03;;;;;;;12.70;7.22;;;;;;;;;;1761284;81;21567;-70
2022/03/26 01:16:30;;;;;;;13.00;6.78;;;;;;;;;;1761699;81;21555;-69
2022/03/26 01:18:58;;;;;;;16.57;7.20;;;;;;;;;;1761462;81;21155;-70
2022/03/26 01:21:25;;;;;;;14.30;7.20;;;;;;;;;;1761591;81;21059;-70
2022/03/26 01:23:51;;;;;;;13.88;8.03;;;;;;;;;;1761456;81;21059;-69
2022/03/26 01:26:18;;;;;;;12.45;7.10;;;;;;;;;;1761767;81;21041;-70
2022/03/26 01:28:45;;;;;;;13.48;7.28;;;;;;;;;;1761472;81;21048;-69
2022/03/26 01:31:12;;;;;;;11.95;6.55;;;;;;;;;;1761387;81;21067;-70
2022/03/26 01:33:39;;;;;;;12.78;6.87;;;;;;;;;;1761622;81;21507;-70
2022/03/26 01:36:06;;;;;;;10.72;6.37;;;;;;;;;;1761387;81;21531;-69
2022/03/26 01:38:33;;;;;;;16.17;7.83;;;;;;;;;;1761566;81;21512;-70
2022/03/26 01:41:00;;;;;;;12.28;6.78;;;;;;;;;;1761519;81;21063;-70
2022/03/26 01:43:26;;;;;;;11.35;6.42;;;;;;;;;;1761513;81;21056;-70
2022/03/26 01:45:53;;;;;;;12.28;7.03;;;;;;;;;;1761306;81;21043;-70
2022/03/26 01:48:19;;;;;;;13.00;7.40;;;;;;;;;;1760670;81;21037;-70
2022/03/26 01:50:45;;;;;;;13.75;7.30;;;;;;;;;;1760724;81;21040;-70
2022/03/26 01:53:12;;;;;;;18.10;8.13;;;;;;;;;;1761053;81;21020;-70
2022/03/26 01:55:39;;;;;;;11.22;6.62;;;;;;;;;;1760685;81;21080;-70
2022/03/26 01:58:05;;;;;;;14.33;8.08;;;;;;;;;;1761090;81;21052;-70
2022/03/26 02:00:32;;;;;;;15.03;8.15;;;;;;;;;;1760691;81;22180;-69
2022/03/26 02:02:58;;;;;;;16.57;7.12;;;;;;;;;;1760794;81;21036;-69
2022/03/26 02:05:25;;;;;;;25.88;9.53;;;;;;;;;;1761730;81;21071;-70
2022/03/26 02:07:52;;;;;;;20.62;9.13;;;;;;;;;;1761909;81;22169;-69
2022/03/26 02:10:18;;;;;;;18.00;9.53;;;;;;;;;;1762129;81;21547;-69
2022/03/26 02:12:46;;;;;;;25.72;10.30;;;;;;;;;;1762182;81;21076;-70
2022/03/26 02:15:13;;;;;;;25.02;10.35;;;;;;;;;;1762311;81;21043;-69
2022/03/26 02:17:40;;;;;;;24.60;9.90;;;;;;;;;;1762112;81;21064;-70
2022/03/26 02:20:08;;;;;;;17.87;8.20;;;;;;;;;;1762246;81;21071;-70
2022/03/26 02:22:34;;;;;;;18.57;9.45;;;;;;;;;;1762228;81;21582;-69
2022/03/26 02:25:00;;;;;;;19.52;9.33;;;;;;;;;;1762178;81;21579;-70
2022/03/26 02:27:27;;;;;;;18.98;9.75;;;;;;;;;;1762055;81;21543;-69
2022/03/26 02:29:54;;;;;;;13.93;7.47;;;;;;;;;;1762327;81;21032;-69
2022/03/26 02:32:21;;;;;;;17.80;9.15;;;;;;;;;;1762200;81;21056;-69
2022/03/26 02:34:48;;;;;;;14.43;7.47;;;;;;;;;;1762208;81;21016;-70
2022/03/26 02:37:16;;;;;;;17.25;8.53;;;;;;;;;;1762369;81;21598;-69
2022/03/26 02:39:43;;;;;;;20.60;8.85;;;;;;;;;;1761971;81;21071;-70
2022/03/26 02:42:09;;;;;;;14.47;8.40;;;;;;;;;;1762446;81;21048;-70
2022/03/26 02:44:36;;;;;;;19.62;9.48;;;;;;;;;;1762248;81;21056;-70
2022/03/26 02:47:04;;;;;;;17.40;8.15;;;;;;;;;;1762436;81;21103;-70
2022/03/26 02:49:30;;;;;;;17.52;8.75;;;;;;;;;;1762398;81;21008;-70
2022/03/26 02:51:56;;;;;;;17.20;8.43;;;;;;;;;;1762480;81;21055;-70
2022/03/26 02:54:22;;;;;;;14.75;7.40;;;;;;;;;;1762182;81;21099;-69
2022/03/26 02:56:49;;;;;;;16.75;8.90;;;;;;;;;;1762316;81;21060;-70
2022/03/26 02:59:15;;;;;;;18.90;8.75;;;;;;;;;;1762174;81;21557;-69
2022/03/26 03:01:41;;;;;;;17.95;8.23;;;;;;;;;;1762430;81;21563;-69
2022/03/26 03:04:09;;;;;;;19.35;8.58;;;;;;;;;;1761687;81;21107;-69
2022/03/26 03:06:35;;;;;;;16.97;8.15;;;;;;;;;;1760698;81;21056;-69
2022/03/26 03:09:04;;;;;;;15.10;8.30;;;;;;;;;;1760511;81;21100;-69
2022/03/26 03:11:30;;;;;;;16.60;9.03;;;;;;;;;;1760990;81;21048;-69
2022/03/26 03:13:57;;;;;;;20.70;9.05;;;;;;;;;;1760671;81;21092;-69
2022/03/26 03:16:24;;;;;;;18.95;8.70;;;;;;;;;;1760791;81;21071;-69
2022/03/26 03:18:52;;;;;;;19.48;9.08;;;;;;;;;;1760558;81;21085;-69
2022/03/26 03:21:18;;;;;;;17.10;8.65;;;;;;;;;;1760539;81;21122;-70
2022/03/26 03:23:45;;;;;;;19.30;9.25;;;;;;;;;;1760784;81;21008;-70
2022/03/26 03:26:11;;;;;;;13.95;7.80;;;;;;;;;;1760703;81;21072;-71
2022/03/26 03:28:38;;;;;;;18.27;8.00;;;;;;;;;;1760863;81;21072;-70
2022/03/26 03:31:04;;;;;;;16.17;7.45;;;;;;;;;;1760688;81;21094;-70
2022/03/26 03:33:31;;;;;;;15.75;7.70;;;;;;;;;;1761055;81;21555;-70
2022/03/26 03:35:58;;;;;;;15.65;7.53;;;;;;;;;;1760600;81;21564;-70
2022/03/26 03:38:25;;;;;;;14.83;8.18;;;;;;;;;;1760771;81;20997;-70
2022/03/26 03:40:52;;;;;;;13.30;7.15;;;;;;;;;;1760474;81;21040;-70
2022/03/26 03:43:18;;;;;;;16.60;8.50;;;;;;;;;;1760989;81;21091;-69
2022/03/26 03:45:45;;;;;;;14.28;8.00;;;;;;;;;;1760432;81;21559;-70
2022/03/26 03:48:12;;;;;;;15.23;7.45;;;;;;;;;;1760571;81;21083;-69
2022/03/26 03:50:39;;;;;;;15.03;7.67;;;;;;;;;;1760843;81;21080;-69
2022/03/26 03:53:06;;;;;;;15.50;7.58;;;;;;;;;;1760636;81;21060;-69
2022/03/26 03:55:32;;;;;;;13.65;7.78;;;;;;;;;;1760802;81;21040;-70
2022/03/26 03:57:58;;;;;;;14.38;8.03;;;;;;;;;;1760831;81;21032;-69
2022/03/26 04:00:24;;;;;;;16.23;8.20;;;;;;;;;;1760809;81;21052;-69
2022/03/26 04:02:53;;;;;;;16.90;8.25;;;;;;;;;;1760754;81;21056;-69
2022/03/26 04:05:20;;;;;;;14.68;7.08;;;;;;;;;;1765860;81;21578;-70
2022/03/26 04:07:46;;;;;;;14.58;8.15;;;;;;;;;;1769509;81;21050;-69
2022/03/26 04:10:14;;;;;;;17.87;7.95;;;;;;;;;;1769681;81;21547;-70
2022/03/26 04:12:42;;;;;;;16.32;8.00;;;;;;;;;;1769455;81;21028;-70
2022/03/26 04:15:09;;;;;;;14.35;7.50;;;;;;;;;;1769532;81;21079;-69
2022/03/26 04:17:35;;;;;;;14.75;7.85;;;;;;;;;;1769753;81;21040;-70
2022/03/26 04:20:02;;;;;;;17.12;8.98;;;;;;;;;;1769668;81;20989;-71
2022/03/26 04:22:28;;;;;;;11.48;6.85;;;;;;;;;;1769992;81;21110;-70
2022/03/26 04:24:55;;;;;;;15.28;6.95;;;;;;;;;;1769705;81;21048;-70
2022/03/26 04:27:23;;;;;;;12.30;6.50;;;;;;;;;;1770091;81;21048;-71
2022/03/26 04:29:50;;;;;;;9.23;6.45;;;;;;;;;;1769534;81;21040;-70
2022/03/26 04:32:16;;;;;;;13.80;6.95;;;;;;;;;;1769959;81;21059;-70
2022/03/26 04:34:42;;;;;;;14.20;7.87;;;;;;;;;;1769565;81;21039;-70
2022/03/26 04:37:09;;;;;;;15.32;7.97;;;;;;;;;;1769822;81;21098;-70
2022/03/26 04:39:35;;;;;;;18.00;7.87;;;;;;;;;;1769431;81;21087;-70
2022/03/26 04:42:02;;;;;;;10.65;6.60;;;;;;;;;;1769909;81;21516;-71
2022/03/26 04:44:29;;;;;;;16.97;7.67;;;;;;;;;;1769541;81;21059;-71
2022/03/26 04:46:55;;;;;;;15.48;7.78;;;;;;;;;;1769590;81;21067;-71
2022/03/26 04:49:21;;;;;;;15.23;8.20;;;;;;;;;;1769790;81;21511;-71
2022/03/26 04:51:49;;;;;;;12.33;6.80;;;;;;;;;;1769505;81;21107;-71
2022/03/26 04:54:15;;;;;;;11.97;7.17;;;;;;;;;;1769680;81;21043;-70
2022/03/26 04:56:42;;;;;;;12.75;7.83;;;;;;;;;;1769674;81;21156;-71
2022/03/26 04:59:08;;;;;;;12.47;6.65;;;;;;;;;;1769854;81;21031;-70
2022/03/26 05:01:35;;;;;;;16.12;8.25;;;;;;;;;;1769449;81;21055;-71
2022/03/26 05:04:02;;;;;;;14.07;7.72;;;;;;;;;;1769714;81;21100;-71
2022/03/26 05:06:29;;;;;;;15.85;9.73;;;;;;;;;;1762176;81;21080;-71
2022/03/26 05:08:56;;;;;;;13.53;8.53;;;;;;;;;;1762086;81;21044;-71
2022/03/26 05:11:22;;;;;;;12.75;8.05;;;;;;;;;;1762029;81;21095;-71
2022/03/26 05:13:49;;;;;;;16.05;9.68;;;;;;;;;;1761898;81;21032;-71
2022/03/26 05:16:15;;;;;;;14.38;10.03;;;;;;;;;;1762151;81;21044;-71
2022/03/26 05:18:42;;;;;;;13.85;9.23;;;;;;;;;;1761881;81;21512;-70
2022/03/26 05:21:08;;;;;;;15.25;10.32;;;;;;;;;;1762199;81;21063;-70
2022/03/26 05:23:35;;;;;;;15.32;10.30;;;;;;;;;;1762071;81;21056;-70
2022/03/26 05:26:02;;;;;;;15.05;9.18;;;;;;;;;;1762333;81;21013;-70
2022/03/26 05:28:28;;;;;;;15.28;9.63;;;;;;;;;;1762645;81;21031;-70
2022/03/26 05:30:55;;;;;;;13.88;10.23;;;;;;;;;;1762293;81;21059;-70
2022/03/26 05:33:21;;;;;;;15.15;9.73;;;;;;;;;;1762214;81;21044;-70
2022/03/26 05:35:48;;;;;;;14.55;9.98;;;;;;;;;;1762327;81;21075;-70
2022/03/26 05:38:14;;;;;;;14.20;9.40;;;;;;;;;;1762326;81;21024;-70
2022/03/26 05:40:41;;;;;;;15.98;10.08;;;;;;;;;;1762308;81;21033;-72
2022/03/26 05:43:08;;;;;;;16.35;10.78;;;;;;;;;;1762253;81;21181;-70
2022/03/26 05:45:35;;;;;;;14.00;8.95;;;;;;;;;;1762450;81;21086;-70
2022/03/26 05:48:05;;;;;;;14.90;9.80;;;;;;;;;;1762134;81;22034;-70
2022/03/26 05:50:34;;;;;;;15.58;10.15;;;;;;;;;;1762159;81;21013;-70
2022/03/26 05:52:59;;;;;;;16.17;10.38;;;;;;;;;;1762280;81;21114;-69
2022/03/26 05:55:27;;;;;;;19.92;10.72;;;;;;;;;;1762150;81;21004;-70
2022/03/26 05:57:53;;;;;;;15.43;9.50;;;;;;;;;;1762255;81;21037;-70
2022/03/26 06:00:20;;;;;;;15.32;11.18;;;;;;;;;;1762169;81;21107;-70
2022/03/26 06:02:51;;;;;;;16.20;10.50;;;;;;;;;;1762396;81;21016;-70
2022/03/26 06:05:16;;;;;;;16.55;8.93;;;;;;;;;;1764077;81;21067;-70
2022/03/26 06:07:42;;;;;;;15.58;10.25;;;;;;;;;;1770083;81;21063;-70
2022/03/26 06:10:10;;;;;;;13.78;9.70;;;;;;;;;;1769669;81;21058;-70
2022/03/26 06:12:37;;;;;;;14.38;9.33;;;;;;;;;;1769892;81;21496;-70
2022/03/26 06:15:05;;;;;;;15.70;9.43;;;;;;;;;;1769572;81;21515;-70
2022/03/26 06:17:31;;;;;;;12.80;8.63;;;;;;;;;;1769868;81;21012;-70
2022/03/26 06:19:58;;;;;;;14.83;9.65;;;;;;;;;;1769357;81;21579;-70
2022/03/26 06:22:25;;;;;;;15.70;9.38;;;;;;;;;;1769649;81;21083;-72
2022/03/26 06:24:53;;;;;;;13.80;8.78;;;;;;;;;;1769791;81;21582;-70
2022/03/26 06:27:20;;;;;;;13.88;9.38;;;;;;;;;;1769653;81;21099;-70
2022/03/26 06:29:48;;;;;;;14.10;9.28;;;;;;;;;;1769628;81;21064;-70
2022/03/26 06:32:14;;;;;;;13.58;8.75;;;;;;;;;;1769578;81;21050;-70
2022/03/26 06:34:42;;;;;;;16.97;9.60;;;;;;;;;;1769807;81;21115;-70
2022/03/26 06:37:08;;;;;;;14.95;9.40;;;;;;;;;;1769635;81;21036;-70
2022/03/26 06:39:34;;;;;;;13.48;8.60;;;;;;;;;;1769876;81;21064;-72
2022/03/26 06:42:01;;;;;;;14.43;9.83;;;;;;;;;;1769335;81;21043;-72
2022/03/26 06:44:28;;;;;;;15.58;9.45;;;;;;;;;;1769716;81;21040;-71
2022/03/26 06:46:54;;;;;;;15.85;9.90;;;;;;;;;;1769630;81;21060;-70
2022/03/26 06:49:20;;;;;;;13.22;9.10;;;;;;;;;;1769700;81;21036;-70
2022/03/26 06:51:47;;;;;;;16.73;9.95;;;;;;;;;;1769558;81;21115;-70
2022/03/26 06:54:13;;;;;;;15.48;9.43;;;;;;;;;;1769993;81;21020;-71
2022/03/26 06:56:40;;;;;;;16.23;8.95;;;;;;;;;;1769568;81;21079;-71
2022/03/26 06:59:07;;;;;;;17.30;8.85;;;;;;;;;;1770072;81;21035;-71
2022/03/26 07:01:35;;;;;;;15.03;9.20;;;;;;;;;;1769702;81;21594;-71
2022/03/26 07:04:02;;;;;;;18.77;9.53;;;;;;;;;;1769925;81;21071;-70
2022/03/26 07:09:19;;;;;;;20.12;9.18;;;;;;;;;;1722304;80;21067;-70
2022/03/26 07:11:47;;;;;;;14.53;9.03;;;;;;;;;;1734179;83;21520;-70
2022/03/26 07:14:14;;;;;;;14.35;8.93;;;;;;;;;;1733636;83;21020;-70
2022/03/26 07:16:43;;;;;;;19.32;10.58;;;;;;;;;;1733863;83;21056;-71
2022/03/26 07:19:11;;;;;;;14.10;9.10;;;;;;;;;;1733417;83;21032;-71
2022/03/26 07:21:39;;;;;;;16.62;9.58;;;;;;;;;;1733882;83;21015;-71
2022/03/26 07:24:07;;;;;;;16.73;9.78;;;;;;;;;;1733614;82;21127;-71
2022/03/26 07:26:34;;;;;;;16.32;10.18;;;;;;;;;;1733990;83;21538;-71
2022/03/26 07:29:01;;;;;;;13.20;7.78;;;;;;;;;;1733653;83;21063;-71
2022/03/26 07:31:27;;;;;;;15.50;9.85;;;;;;;;;;1733843;83;21059;-71
2022/03/26 07:33:54;;;;;;;17.77;10.70;;;;;;;;;;1733870;83;21471;-71
2022/03/26 07:36:20;;;;;;;16.62;9.23;;;;;;;;;;1733805;83;21035;-71
2022/03/26 07:38:47;;;;;;;15.85;9.23;;;;;;;;;;1733540;83;21032;-71
2022/03/26 07:41:14;;;;;;;17.77;9.78;;;;;;;;;;1733846;83;21539;-70
2022/03/26 07:43:41;;;;;;;18.00;8.90;;;;;;;;;;1733486;83;22181;-69
2022/03/26 07:46:08;;;;;;;18.37;10.58;;;;;;;;;;1733867;83;21556;-71
2022/03/26 07:48:35;;;;;;;16.85;10.40;;;;;;;;;;1733674;83;21459;-71
2022/03/26 07:51:03;;;;;;;16.82;9.75;;;;;;;;;;1733791;83;21542;-71
2022/03/26 07:53:29;;;;;;;17.23;9.88;;;;;;;;;;1733649;83;21035;-71
2022/03/26 07:55:58;;;;;;;21.37;12.55;;;;;;;;;;1733597;83;20989;-71
2022/03/26 07:58:25;;;;;;;19.87;12.53;;;;;;;;;;1734112;83;21559;-71
2022/03/26 08:00:52;;;;;;;22.17;13.43;;;;;;;;;;1734046;83;21539;-71
2022/03/26 08:03:19;;;;;;;25.40;12.88;;;;;;;;;;1733861;83;21016;-71
2022/03/26 08:05:47;;;;;;;20.68;12.80;;;;;;;;;;1733614;83;21079;-71
2022/03/26 08:08:14;;;;;;;25.32;13.83;;;;;;;;;;1744458;80;21574;-71
2022/03/26 08:10:45;;;;;;;22.87;12.88;;;;;;;;;;1764035;81;21008;-71
2022/03/26 08:13:12;;;;;;;22.42;12.40;;;;;;;;;;1764083;81;21055;-71
2022/03/26 08:15:41;;;;;;;24.12;12.68;;;;;;;;;;1763963;81;21107;-71
2022/03/26 08:18:09;;;;;;;27.82;13.35;;;;;;;;;;1763675;81;21051;-71
2022/03/26 08:20:37;;;;;;;20.97;12.40;;;;;;;;;;1764026;81;21043;-71
2022/03/26 08:23:05;;;;;;;24.55;13.80;;;;;;;;;;1764045;81;21012;-71
2022/03/26 08:28:18;;;;;;;20.35;12.07;;;;;;;;;;1763774;81;21076;-71
2022/03/26 08:30:46;;;;;;;25.25;12.85;;;;;;;;;;1764153;81;20983;-71
2022/03/26 08:33:14;;;;;;;22.75;12.23;;;;;;;;;;1763902;81;21554;-71
2022/03/26 08:35:41;;;;;;;21.62;11.40;;;;;;;;;;1764098;81;21020;-71
2022/03/26 08:38:09;;;;;;;25.97;13.35;;;;;;;;;;1763928;81;21059;-71
2022/03/26 08:40:36;;;;;;;25.12;13.35;;;;;;;;;;1764127;81;21499;-71
2022/03/26 08:43:04;;;;;;;23.75;12.88;;;;;;;;;;1763814;81;21054;-71
2022/03/26 08:45:31;;;;;;;29.85;13.10;;;;;;;;;;1764429;81;21012;-69
2022/03/26 08:47:58;;;;;;;18.55;10.80;;;;;;;;;;1763810;81;21539;-70
2022/03/26 08:50:26;;;;;;;24.10;13.50;;;;;;;;;;1763767;81;21543;-69
2022/03/26 08:52:54;;;;;;;24.40;13.50;;;;;;;;;;1764170;81;21031;-71
2022/03/26 08:55:21;;;;;;;18.67;10.48;;;;;;;;;;1763873;81;20976;-71
2022/03/26 08:57:48;;;;;;;22.98;12.93;;;;;;;;;;1764016;81;21554;-71
2022/03/26 09:00:17;;;;;;;26.50;14.70;;;;;;;;;;1764202;81;21043;-71
2022/03/26 09:02:46;;;;;;;28.07;13.85;;;;;;;;;;1764386;81;21056;-70
2022/03/26 09:05:15;;;;;;;28.12;15.45;;;;;;;;;;1764155;81;21875;-72
2022/03/26 09:07:43;;;;;;;21.07;13.18;;;;;;;;;;1764352;80;21149;-71
2022/03/26 09:10:12;;;;;;;23.25;13.22;;;;;;;;;;1768752;80;21043;-71
2022/03/26 09:12:41;;;;;;;23.87;12.90;;;;;;;;;;1770141;81;21003;-71
2022/03/26 09:15:08;;;;;;;22.70;12.95;;;;;;;;;;1769856;81;21582;-71
2022/03/26 09:17:37;;;;;;;20.57;11.28;;;;;;;;;;1769956;81;21015;-69
2022/03/26 09:20:04;;;;;;;24.47;13.72;;;;;;;;;;1769957;81;21071;-69
2022/03/26 09:22:33;;;;;;;28.70;13.35;;;;;;;;;;1770087;81;21108;-69
2022/03/26 09:25:00;;;;;;;25.50;14.18;;;;;;;;;;1769849;81;21023;-69
2022/03/26 09:27:27;;;;;;;25.30;14.35;;;;;;;;;;1769848;81;21526;-71
2022/03/26 09:29:53;;;;;;;22.70;14.55;;;;;;;;;;1769786;81;21585;-71
2022/03/26 09:32:22;;;;;;;18.75;12.23;;;;;;;;;;1769790;81;21015;-71
2022/03/26 09:34:49;;;;;;;22.50;12.35;;;;;;;;;;1769846;81;21522;-70
2022/03/26 09:37:16;;;;;;;23.77;12.00;;;;;;;;;;1769887;81;21511;-69
2022/03/26 09:39:43;;;;;;;21.05;12.33;;;;;;;;;;1769910;81;21058;-70
2022/03/26 09:42:11;;;;;;;23.50;13.25;;;;;;;;;;1741389;81;21031;-70
2022/03/26 09:44:40;;;;;;;20.60;12.13;;;;;;;;;;1769716;81;21491;-70
2022/03/26 09:47:07;;;;;;;21.27;12.63;;;;;;;;;;1769902;81;21014;-70
2022/03/26 09:49:36;;;;;;;24.82;13.60;;;;;;;;;;1769799;81;21038;-71
2022/03/26 09:52:06;;;;;;;23.42;12.15;;;;;;;;;;1769938;81;21605;-71
2022/03/26 09:54:33;;;;;;;21.05;13.40;;;;;;;;;;1769701;81;21041;-71
2022/03/26 09:57:00;;;;;;;19.15;11.38;;;;;;;;;;1769946;81;21043;-71
2022/03/26 09:59:27;;;;;;;20.62;11.70;;;;;;;;;;1769893;81;22214;-72
2022/03/26 10:01:54;;;;;;;22.75;13.32;;;;;;;;;;1769809;81;21590;-71
2022/03/26 10:04:22;;;;;;;27.58;12.82;;;;;;;;;;1769711;81;21519;-71
2022/03/26 10:06:50;;;;;;;26.12;13.93;;;;;;;;;;1769882;81;21031;-71
2022/03/26 10:09:31;;;;;;;24.98;13.68;;;;;;;;;;1767636;80;21122;-71
2022/03/26 10:11:59;;;;;;;22.07;12.53;;;;;;;;;;1764107;81;21504;-71
2022/03/26 10:14:28;;;;;;;22.52;12.28;;;;;;;;;;1764154;81;21031;-71
2022/03/26 10:16:57;;;;;;;20.20;11.97;;;;;;;;;;1762896;81;21531;-71
2022/03/26 10:19:24;;;;;;;19.82;11.75;;;;;;;;;;1764068;81;21047;-71
2022/03/26 10:21:53;;;;;;;21.27;10.23;;;;;;;;;;1764088;81;21050;-71
2022/03/26 10:24:21;;;;;;;21.25;14.20;;;;;;;;;;1764129;81;21515;-71
2022/03/26 10:26:49;;;;;;;22.55;13.62;;;;;;;;;;1763941;81;21480;-71
2022/03/26 10:29:16;;;;;;;23.22;13.40;;;;;;;;;;1764073;81;21585;-71
2022/03/26 10:34:31;;;;;;;20.80;12.45;;;;;;;;;;1764295;81;21028;-71
2022/03/26 10:36:58;;;;;;;18.73;11.70;;;;;;;;;;1764053;81;21531;-71
2022/03/26 10:39:29;;;;;;;22.32;10.85;;;;;;;;;;1763957;81;21050;-71
2022/03/26 10:41:56;;;;;;;18.45;9.85;;;;;;;;;;1764042;81;21092;-71
2022/03/26 10:44:26;;;;;;;19.52;9.30;;;;;;;;;;1764122;81;21000;-71
2022/03/26 10:46:57;;;;;;;17.23;9.60;;;;;;;;;;1764158;81;21036;-71
2022/03/26 10:49:26;;;;;;;19.70;9.80;;;;;;;;;;1764132;81;22004;-71
2022/03/26 10:51:53;;;;;;;15.20;8.63;;;;;;;;;;1764286;81;20988;-71
2022/03/26 10:54:29;;;;;;;19.60;9.58;;;;;;;;;;1763916;81;21044;-71
2022/03/26 10:56:57;;;;;;;19.80;9.33;;;;;;;;;;1732674;81;21526;-69
2022/03/26 10:59:24;;;;;;;14.78;8.80;;;;;;;;;;1763965;81;21027;-69
2022/03/26 11:01:51;;;;;;;15.78;9.30;;;;;;;;;;1764111;81;21031;-70
2022/03/26 11:04:18;;;;;;;14.38;9.33;;;;;;;;;;1764054;81;21542;-70
2022/03/26 11:06:45;;;;;;;18.77;9.65;;;;;;;;;;1764184;81;21281;-70
2022/03/26 11:09:13;;;;;;;17.05;8.68;;;;;;;;;;1764814;80;21409;-70
2022/03/26 11:11:40;;;;;;;16.62;7.87;;;;;;;;;;1769720;81;20984;-71
2022/03/26 11:14:09;;;;;;;13.68;7.17;;;;;;;;;;1769687;81;20992;-70
2022/03/26 11:16:41;;;;;;;24.82;8.15;;;;;;;;;;1768848;81;21044;-70
2022/03/26 11:19:20;;;;;;;35.58;8.65;;;;;;;;;;1769528;81;21047;-70
2022/03/26 11:21:50;;;;;;;16.48;7.85;;;;;;;;;;1769583;81;22093;-70
2022/03/26 11:24:41;;;;;;;17.30;8.53;;;;;;;;;;1769611;81;21051;-70
2022/03/26 11:27:09;;;;;;;16.60;7.85;;;;;;;;;;1769153;81;21035;-70
2022/03/26 11:29:57;;;;;;;15.72;8.18;;;;;;;;;;1769307;81;21777;-69
2022/03/26 11:32:26;;;;;;;20.32;8.10;;;;;;;;;;1769695;81;21015;-70
2022/03/26 11:34:59;;;;;;;16.65;7.15;;;;;;;;;;1769715;81;21066;-69
2022/03/26 11:37:27;;;;;;;22.75;8.35;;;;;;;;;;1770043;81;21518;-69
2022/03/26 11:39:58;;;;;;;12.25;6.87;;;;;;;;;;1770050;81;21597;-69
2022/03/26 11:42:27;;;;;;;14.30;7.75;;;;;;;;;;1769938;81;21035;-69
2022/03/26 11:50:41;;;;;;;14.05;6.45;;;;;;;;;;1769725;81;21051;-69
2022/03/26 11:53:10;;;;;;;18.82;6.80;;;;;;;;;;1769880;81;20976;-69
2022/03/26 11:55:46;;;;;;;12.95;6.03;;;;;;;;;;1769713;81;21011;-69
2022/03/26 11:58:14;;;;;;;13.50;6.30;;;;;;;;;;1769905;81;21098;-70
2022/03/26 12:00:58;;;;;;;12.55;6.15;;;;;;;;;;1769739;81;21530;-69
2022/03/26 12:03:25;;;;;;;12.13;6.45;;;;;;;;;;1770046;81;21543;-70
2022/03/26 12:08:44;;;;;;;12.23;5.97;;;;;;;;;;1769769;80;21567;-70
2022/03/26 12:11:12;;;;;;;10.63;5.62;;;;;;;;;;1791407;80;21052;-70
2022/03/26 12:13:41;;;;;;;14.13;6.45;;;;;;;;;;1795023;80;21008;-70
2022/03/26 12:16:09;;;;;;;16.37;6.70;;;;;;;;;;1794987;80;21024;-70
2022/03/26 12:18:37;;;;;;;13.53;6.90;;;;;;;;;;1794965;80;20964;-70
2022/03/26 12:21:06;;;;;;;30.27;8.95;;;;;;;;;;1794580;80;21087;-70
2022/03/26 12:23:34;;;;;;;17.00;6.95;;;;;;;;;;1794954;80;21019;-70
2022/03/26 12:26:02;;;;;;;17.05;6.83;;;;;;;;;;1794679;80;21468;-70
2022/03/26 12:28:30;;;;;;;17.20;6.37;;;;;;;;;;1794523;80;21452;-70
2022/03/26 12:30:58;;;;;;;17.32;6.50;;;;;;;;;;1794594;80;21029;-70
2022/03/26 12:33:25;;;;;;;12.18;5.60;;;;;;;;;;1794871;80;21016;-70
2022/03/26 12:35:54;;;;;;;15.35;6.42;;;;;;;;;;1794742;80;21326;-69
2022/03/26 12:38:22;;;;;;;13.35;6.55;;;;;;;;;;1794840;80;22048;-69
2022/03/26 12:40:49;;;;;;;15.55;6.12;;;;;;;;;;1794760;80;21543;-70
2022/03/26 12:43:16;;;;;;;12.70;5.00;;;;;;;;;;1794741;80;21509;-70
2022/03/26 12:45:44;;;;;;;16.32;5.50;;;;;;;;;;1794790;80;21023;-70
2022/03/26 12:48:12;;;;;;;20.50;6.80;;;;;;;;;;1794821;80;21000;-69
2022/03/26 12:53:38;;;;;;;17.42;7.17;;;;;;;;;;1801827;79;24058;-69
2022/03/26 12:56:11;;;;;;;16.80;7.65;;;;;;;;;;1761865;81;21044;-67
2022/03/26 12:58:56;;;;;;;20.77;6.95;;;;;;;;;;1761644;81;21059;-70
2022/03/26 13:01:23;;;;;;;13.80;7.00;;;;;;;;;;1761873;81;21583;-69
2022/03/26 13:03:51;;;;;;;12.73;7.00;;;;;;;;;;1746942;81;21622;-72
2022/03/26 13:06:19;;;;;;;14.13;6.35;;;;;;;;;;1730189;82;21080;-72
2022/03/26 13:08:56;;;;;;;16.55;8.63;;;;;;;;;;1730048;83;21032;-72
2022/03/26 13:11:25;;;;;;;23.00;10.82;;;;;;;;;;1730045;82;21021;-71
2022/03/26 13:13:52;;;;;;;14.55;8.63;;;;;;;;;;1730101;83;21032;-71
2022/03/26 13:16:21;;;;;;;19.77;10.70;;;;;;;;;;1730008;82;21647;-71
2022/03/26 13:18:49;;;;;;;19.23;11.12;;;;;;;;;;1729850;83;21029;-71
2022/03/26 13:21:18;;;;;;;25.85;12.58;;;;;;;;;;1730015;82;21100;-71
2022/03/26 13:23:53;;;;;;;26.62;12.25;;;;;;;;;;1690301;81;72556;-70
2022/03/26 13:26:21;;;;;;;28.00;13.55;;;;;;;;;;1682395;85;21039;-70
2022/03/26 13:28:49;;;;;;;26.95;13.08;;;;;;;;;;1682493;85;21023;-70
2022/03/26 13:31:22;;;;;;;16.65;9.15;;;;;;;;;;1682393;85;21610;-69
2022/03/26 13:33:49;;;;;;;18.40;9.13;;;;;;;;;;1682608;85;21601;-69
2022/03/26 13:36:26;;;;;;;16.42;8.03;;;;;;;;;;1682404;85;21047;-69
2022/03/26 13:38:53;;;;;;;13.72;8.10;;;;;;;;;;1682587;85;21082;-70
2022/03/26 13:41:21;;;;;;;19.17;8.30;;;;;;;;;;1682515;85;21035;-70
2022/03/26 13:43:50;;;;;;;15.48;8.15;;;;;;;;;;1682253;85;21071;-70
2022/03/26 13:46:17;;;;;;;16.80;9.25;;;;;;;;;;1682322;85;21023;-70
2022/03/26 13:48:49;;;;;;;17.70;9.05;;;;;;;;;;1682236;85;21130;-70
2022/03/26 13:51:17;;;;;;;18.65;10.23;;;;;;;;;;1682435;85;21007;-70
2022/03/26 13:53:43;;;;;;;18.23;9.73;;;;;;;;;;1682403;85;21062;-70
2022/03/26 13:56:11;;;;;;;25.77;9.58;;;;;;;;;;1682482;85;21511;-70
2022/03/26 13:58:38;;;;;;;17.87;9.20;;;;;;;;;;1682339;85;21624;-70
2022/03/26 14:01:06;;;;;;;16.65;9.23;;;;;;;;;;1682159;85;21550;-70
2022/03/26 14:03:38;;;;;;;22.35;9.58;;;;;;;;;;1682199;85;21593;-69
2022/03/26 14:06:07;;;;;;;12.65;8.38;;;;;;;;;;1681965;85;21055;-70
2022/03/26 14:08:36;;;;;;;20.27;9.08;;;;;;;;;;1683890;84;21139;-70
2022/03/26 14:11:05;;;;;;;23.85;10.23;;;;;;;;;;1685316;85;21081;-70
2022/03/26 14:13:34;;;;;;;20.08;10.05;;;;;;;;;;1685200;85;21065;-70
2022/03/26 14:16:02;;;;;;;18.57;10.90;;;;;;;;;;1685227;85;22170;-70
2022/03/26 14:18:31;;;;;;;20.37;10.03;;;;;;;;;;1685203;85;21125;-70
2022/03/26 14:20:58;;;;;;;17.25;8.18;;;;;;;;;;1685319;85;21548;-70
2022/03/26 14:23:29;;;;;;;18.42;7.53;;;;;;;;;;1657169;85;21056;-70
2022/03/26 14:25:58;;;;;;;16.27;6.55;;;;;;;;;;1683284;85;21561;-70
2022/03/26 14:28:25;;;;;;;13.35;6.08;;;;;;;;;;1683422;85;21593;-71
2022/03/26 14:30:54;;;;;;;11.53;6.97;;;;;;;;;;1683345;85;21089;-70
2022/03/26 14:33:21;;;;;;;10.65;5.37;;;;;;;;;;1683243;85;21428;-72
2022/03/26 14:35:49;;;;;;;12.93;6.92;;;;;;;;;;1683125;85;21532;-73
2022/03/26 14:38:16;;;;;;;12.37;6.75;;;;;;;;;;1683292;85;21520;-71
2022/03/26 14:40:44;;;;;;;10.93;6.47;;;;;;;;;;1683219;85;21014;-70
2022/03/26 14:43:11;;;;;;;9.98;6.15;;;;;;;;;;1683319;85;21049;-71
2022/03/26 14:45:40;;;;;;;12.00;6.05;;;;;;;;;;1683211;85;21084;-72
2022/03/26 14:48:08;;;;;;;8.40;5.17;;;;;;;;;;1683410;85;21635;-72
2022/03/26 14:50:36;;;;;;;17.12;6.15;;;;;;;;;;1683325;85;20994;-70
2022/03/26 14:53:05;;;;;;;9.60;6.15;;;;;;;;;;1683402;85;21085;-72